createdAt,value
2017-10-08T00:02:51.268Z,100391.19
2017-10-08T00:07:53.211Z,100397.22
2017-10-08T00:12:55.149Z,100409.67
2017-10-08T00:17:57.111Z,100406.30
2017-10-08T00:22:59.022Z,100413.75
2017-10-08T00:28:00.949Z,100403.63
2017-10-08T00:33:02.915Z,100401.44
2017-10-08T00:38:05.209Z,100415.70
2017-10-08T00:43:07.211Z,100414.94
2017-10-08T00:48:10.885Z,100414.20
2017-10-08T00:53:12.908Z,100428.14
2017-10-08T00:58:14.918Z,100417.23
2017-10-08T01:03:17.457Z,100422.13
2017-10-08T01:08:19.671Z,100423.98
2017-10-08T01:13:22.302Z,100415.72
2017-10-08T01:18:24.343Z,100424.62
2017-10-08T01:23:26.343Z,100424.27
2017-10-08T01:28:28.384Z,100417.86
2017-10-08T01:33:30.462Z,100421.73
2017-10-08T01:38:32.477Z,100425.77
2017-10-08T01:43:34.552Z,100420.56
2017-10-08T01:48:36.522Z,100427.11
2017-10-08T01:53:39.339Z,100426.77
2017-10-08T01:58:41.336Z,100433.72
2017-10-08T02:03:44.128Z,100433.81
2017-10-08T02:08:46.115Z,100437.30
2017-10-08T02:13:48.072Z,100433.49
2017-10-08T02:18:50.002Z,100441.34
2017-10-08T02:23:51.903Z,100438.30
2017-10-08T02:28:54.573Z,100455.28
2017-10-08T02:33:57.257Z,100453.70
2017-10-08T02:38:59.168Z,100452.11
2017-10-08T02:44:01.087Z,100460.77
2017-10-08T02:49:04.016Z,100468.37
2017-10-08T02:54:06.011Z,100469.96
2017-10-08T02:59:07.996Z,100476.52
2017-10-08T03:04:10.063Z,100480.59
2017-10-08T03:09:12.003Z,100483.20
2017-10-08T03:14:13.990Z,100486.14
2017-10-08T03:19:15.919Z,100495.16
2017-10-08T03:24:17.919Z,100497.25
2017-10-08T03:29:20.602Z,100502.41
2017-10-08T03:34:23.288Z,100506.02
2017-10-08T03:39:25.235Z,100504.53
2017-10-08T03:44:28.313Z,100507.33
2017-10-08T03:49:31.180Z,100514.44
2017-10-08T03:54:33.175Z,100529.98
2017-10-08T03:59:35.123Z,100529.89
2017-10-08T04:04:37.043Z,100532.70
2017-10-08T04:09:39.000Z,100533.88
2017-10-08T04:14:40.934Z,100537.83
2017-10-08T04:19:42.907Z,100537.93
2017-10-08T04:24:44.835Z,100539.52
2017-10-08T04:29:46.724Z,100539.87
2017-10-08T04:34:49.479Z,100543.06
2017-10-08T04:39:51.412Z,100551.33
2017-10-08T04:44:53.341Z,100557.91
2017-10-08T04:49:55.353Z,100558.36
2017-10-08T04:54:57.291Z,100568.53
2017-10-08T05:05:03.084Z,100579.63
2017-10-08T05:10:05.189Z,100580.84
2017-10-08T05:15:07.259Z,100595.11
2017-10-08T05:20:09.198Z,100597.31
2017-10-08T05:25:11.115Z,100600.40
2017-10-08T05:30:20.663Z,100613.67
2017-10-08T05:35:23.401Z,100623.77
2017-10-08T05:40:26.063Z,100636.03
2017-10-08T05:45:29.144Z,100645.52
2017-10-08T05:50:31.820Z,100666.04
2017-10-08T05:55:33.723Z,100672.55
2017-10-08T06:00:35.695Z,100682.81
2017-10-08T06:05:38.461Z,100696.86
2017-10-08T06:10:41.155Z,100703.52
2017-10-08T06:15:43.488Z,100717.03
2017-10-08T06:20:45.455Z,100710.39
2017-10-08T06:25:47.835Z,100723.98
2017-10-08T06:30:50.226Z,100723.16
2017-10-08T06:35:52.955Z,100734.14
2017-10-08T06:40:55.020Z,100745.30
2017-10-08T06:45:56.941Z,100761.71
2017-10-08T06:50:58.879Z,100766.72
2017-10-08T06:56:00.810Z,100774.03
2017-10-08T07:01:02.839Z,100772.58
2017-10-08T07:06:05.516Z,100781.22
2017-10-08T07:11:08.160Z,100781.74
2017-10-08T07:16:10.063Z,100791.50
2017-10-08T07:21:12.173Z,100794.14
2017-10-08T07:26:14.855Z,100803.37
2017-10-08T07:31:25.808Z,100815.58
2017-10-08T07:36:27.859Z,100820.29
2017-10-08T07:41:30.085Z,100825.81
2017-10-08T07:46:32.162Z,100830.03
2017-10-08T07:51:34.125Z,100829.20
2017-10-08T07:56:36.088Z,100833.81
2017-10-08T08:01:38.819Z,100845.84
2017-10-08T08:06:41.295Z,100851.89
2017-10-08T08:11:43.571Z,100864.20
2017-10-08T08:16:46.983Z,100866.31
2017-10-08T08:21:48.968Z,100873.70
2017-10-08T08:26:50.888Z,100880.56
2017-10-08T08:31:52.804Z,100883.91
2017-10-08T08:36:55.971Z,100886.73
2017-10-08T08:41:58.945Z,100892.25
2017-10-08T08:47:00.922Z,100909.56
2017-10-08T08:52:02.884Z,100917.92
2017-10-08T08:57:04.841Z,100924.22
2017-10-08T09:02:06.823Z,100921.92
2017-10-08T09:07:08.885Z,100924.20
2017-10-08T09:12:11.552Z,100939.59
2017-10-08T09:17:14.231Z,100950.86
2017-10-08T09:22:16.889Z,100960.95
2017-10-08T09:27:19.633Z,100967.53
2017-10-08T09:32:21.751Z,100971.03
2017-10-08T09:37:23.682Z,100976.00
2017-10-08T09:42:26.796Z,100983.06
2017-10-08T09:47:29.847Z,100991.46
2017-10-08T09:52:31.817Z,100995.80
2017-10-08T09:57:33.788Z,101003.36
2017-10-08T10:02:35.879Z,101005.38
2017-10-08T10:07:37.825Z,101009.98
2017-10-08T10:12:39.724Z,101017.83
2017-10-08T10:17:50.969Z,101026.23
2017-10-08T10:22:55.026Z,101027.84
2017-10-08T10:27:58.759Z,101040.70
2017-10-08T10:33:01.616Z,101044.17
2017-10-08T10:38:05.113Z,101042.90
2017-10-08T10:43:11.945Z,101054.82
2017-10-08T10:48:14.062Z,101058.16
2017-10-08T10:53:16.638Z,101056.15
2017-10-08T10:58:20.618Z,101056.04
2017-10-08T11:03:22.737Z,101052.88
2017-10-08T11:08:24.730Z,101058.16
2017-10-08T11:13:27.848Z,101072.20
2017-10-08T11:18:29.879Z,101074.10
2017-10-08T11:23:31.804Z,101080.38
2017-10-08T11:28:35.363Z,101070.59
2017-10-08T11:33:38.066Z,101080.05
2017-10-08T11:38:40.087Z,101079.41
2017-10-08T11:43:42.136Z,101076.15
2017-10-08T11:48:44.096Z,101082.42
2017-10-08T11:53:46.010Z,101080.10
2017-10-08T11:58:48.667Z,101077.41
2017-10-08T12:03:50.650Z,101072.20
2017-10-08T12:08:52.602Z,101071.37
2017-10-08T12:13:54.557Z,101080.13
2017-10-08T12:18:56.489Z,101077.21
2017-10-08T12:24:03.308Z,101088.27
2017-10-08T12:29:05.563Z,101083.56
2017-10-08T12:34:07.476Z,101082.30
2017-10-08T12:39:09.376Z,101083.14
2017-10-08T12:44:11.431Z,101094.31
2017-10-08T12:49:14.061Z,101099.70
2017-10-08T12:54:15.991Z,101094.53
2017-10-08T12:59:17.896Z,101100.08
2017-10-08T13:04:20.603Z,101096.16
2017-10-08T13:09:22.595Z,101095.24
2017-10-08T13:14:25.259Z,101109.39
2017-10-08T13:19:28.059Z,101112.97
2017-10-08T13:24:30.024Z,101135.66
2017-10-08T13:29:32.004Z,101126.80
2017-10-08T13:34:34.994Z,101145.05
2017-10-08T13:39:36.976Z,101145.59
2017-10-08T13:44:38.895Z,101143.48
2017-10-08T13:49:40.859Z,101146.15
2017-10-08T13:54:42.779Z,101150.73
2017-10-08T13:59:45.749Z,101152.44
2017-10-08T14:04:48.858Z,101154.21
2017-10-08T14:09:50.979Z,101147.33
2017-10-08T14:14:54.020Z,101159.89
2017-10-08T14:19:59.049Z,101151.55
2017-10-08T14:25:01.459Z,101158.61
2017-10-08T14:30:03.759Z,101156.11
2017-10-08T14:35:06.155Z,101161.59
2017-10-08T14:40:09.842Z,101161.84
2017-10-08T14:45:12.995Z,101154.91
2017-10-08T14:50:16.730Z,101158.17
2017-10-08T14:55:18.786Z,101165.56
2017-10-08T15:00:21.096Z,101165.83
2017-10-08T15:05:23.802Z,101170.41
2017-10-08T15:10:26.174Z,101168.18
2017-10-08T15:15:29.314Z,101173.59
2017-10-08T15:20:31.252Z,101179.98
2017-10-08T15:25:33.292Z,101182.47
2017-10-08T15:30:35.244Z,101180.97
2017-10-08T15:35:37.192Z,101187.08
2017-10-08T15:40:39.111Z,101186.28
2017-10-08T15:45:41.829Z,101191.80
2017-10-08T15:50:43.755Z,101193.75
2017-10-08T15:55:45.720Z,101203.24
2017-10-08T16:00:48.739Z,101206.61
2017-10-08T16:05:51.437Z,101212.45
2017-10-08T16:10:53.519Z,101215.39
2017-10-08T16:15:55.834Z,101213.78
2017-10-08T16:20:57.744Z,101217.67
2017-10-08T16:25:59.719Z,101229.14
2017-10-08T16:31:01.665Z,101231.02
2017-10-08T16:36:04.396Z,101238.08
2017-10-08T16:41:06.374Z,101238.42
2017-10-08T16:46:08.344Z,101252.80
2017-10-08T16:51:10.281Z,101258.66
2017-10-08T16:56:12.242Z,101272.11
2017-10-08T17:01:14.220Z,101277.09
2017-10-08T17:06:16.153Z,101284.36
2017-10-08T17:11:18.380Z,101279.59
2017-10-08T17:16:20.323Z,101292.89
2017-10-08T17:21:22.235Z,101297.97
2017-10-08T17:31:39.960Z,101305.75
2017-10-08T17:36:41.907Z,101313.52
2017-10-08T17:41:43.843Z,101324.63
2017-10-08T17:46:47.136Z,101322.02
2017-10-08T17:51:49.973Z,101318.56
2017-10-08T17:56:52.377Z,101338.12
2017-10-08T18:01:55.624Z,101342.00
2017-10-08T18:06:58.708Z,101348.34
2017-10-08T18:12:02.129Z,101355.33
2017-10-08T18:17:05.961Z,101342.72
2017-10-08T18:22:08.049Z,101361.06
2017-10-08T18:27:11.250Z,101366.81
2017-10-08T18:32:13.334Z,101374.55
2017-10-08T18:37:16.135Z,101376.98
2017-10-08T18:42:19.381Z,101381.25
2017-10-08T18:47:23.749Z,101385.73
2017-10-08T18:52:30.358Z,101392.86
2017-10-08T18:57:33.188Z,101398.94
2017-10-08T19:02:35.299Z,101404.40
2017-10-08T19:07:37.256Z,101411.17
2017-10-08T19:12:39.248Z,101407.83
2017-10-08T19:17:41.523Z,101405.15
2017-10-08T19:22:43.876Z,101413.78
2017-10-08T19:27:47.996Z,101421.83
2017-10-08T19:32:51.350Z,101415.94
2017-10-08T19:37:55.016Z,101420.02
2017-10-08T19:43:00.081Z,101418.95
2017-10-08T19:48:02.989Z,101425.39
2017-10-08T19:53:04.976Z,101423.59
2017-10-08T19:58:07.971Z,101435.89
2017-10-08T20:03:10.329Z,101435.91
2017-10-08T20:08:12.554Z,101448.49
2017-10-08T20:13:14.708Z,101449.91
2017-10-08T20:18:16.998Z,101448.83
2017-10-08T20:23:18.915Z,101457.48
2017-10-08T20:28:21.321Z,101469.09
2017-10-08T20:33:24.225Z,101475.55
2017-10-08T20:38:26.460Z,101462.31
2017-10-08T20:43:29.455Z,101469.44
2017-10-08T20:48:31.388Z,101472.74
2017-10-08T20:53:33.288Z,101477.89
2017-10-08T20:58:35.342Z,101478.32
2017-10-08T21:03:38.258Z,101487.53
2017-10-08T21:08:40.220Z,101482.40
2017-10-08T21:13:42.160Z,101484.31
2017-10-08T21:18:44.126Z,101482.13
2017-10-08T21:23:46.083Z,101477.03
2017-10-08T21:28:48.049Z,101470.63
2017-10-08T21:33:50.098Z,101464.94
2017-10-08T21:38:52.021Z,101468.50
2017-10-08T21:43:53.917Z,101467.45
2017-10-08T21:48:57.229Z,101467.98
2017-10-08T21:53:59.179Z,101469.97
2017-10-08T21:59:01.109Z,101467.34
2017-10-08T22:04:03.141Z,101468.50
2017-10-08T22:09:05.843Z,101461.73
2017-10-08T22:14:07.785Z,101470.70
2017-10-08T22:19:09.727Z,101468.59
2017-10-08T22:24:11.664Z,101465.81
2017-10-08T22:29:13.619Z,101460.44
2017-10-08T22:34:16.244Z,101465.23
2017-10-08T22:39:19.616Z,101469.12
2017-10-08T22:44:22.242Z,101473.70
2017-10-08T22:49:24.785Z,101474.73
2017-10-08T22:54:27.581Z,101466.53
2017-10-08T22:59:29.866Z,101467.46
2017-10-08T23:04:32.602Z,101464.39
2017-10-08T23:09:41.948Z,101465.53
2017-10-08T23:14:44.569Z,101463.45
2017-10-08T23:19:46.929Z,101462.97
2017-10-08T23:24:49.087Z,101466.64
2017-10-08T23:29:51.159Z,101468.01
2017-10-08T23:34:53.779Z,101472.88
2017-10-08T23:39:55.714Z,101472.61
2017-10-08T23:44:58.362Z,101468.28
2017-10-08T23:50:01.099Z,101464.95
2017-10-08T23:55:03.087Z,101468.23
